sensor_id;sensor_type;location;lat;lon;timestamp;P1;durP1;ratioP1;P2;durP2;ratioP2
60032;SDS011;45905;50.570;10.428;2023-06-14T00:02:23;3.10;;;2.70;;
60032;SDS011;45905;50.570;10.428;2023-06-14T00:04:50;5.23;;;4.73;;
60032;SDS011;45905;50.570;10.428;2023-06-14T00:07:20;8.13;;;4.20;;
60032;SDS011;45905;50.570;10.428;2023-06-14T00:10:05;3.27;;;2.63;;
60032;SDS011;45905;50.570;10.428;2023-06-14T00:12:33;4.00;;;3.10;;
60032;SDS011;45905;50.570;10.428;2023-06-14T00:15:00;7.90;;;4.20;;
60032;SDS011;45905;50.570;10.428;2023-06-14T00:17:29;7.10;;;3.20;;
60032;SDS011;45905;50.570;10.428;2023-06-14T00:19:57;3.87;;;2.50;;
60032;SDS011;45905;50.570;10.428;2023-06-14T00:22:25;4.73;;;3.83;;
60032;SDS011;45905;50.570;10.428;2023-06-14T00:24:55;10.13;;;3.70;;
60032;SDS011;45905;50.570;10.428;2023-06-14T00:27:22;4.87;;;4.40;;
60032;SDS011;45905;50.570;10.428;2023-06-14T00:29:51;7.40;;;4.37;;
60032;SDS011;45905;50.570;10.428;2023-06-14T00:32:18;4.10;;;2.87;;
60032;SDS011;45905;50.570;10.428;2023-06-14T00:34:51;10.97;;;4.70;;
60032;SDS011;45905;50.570;10.428;2023-06-14T00:37:18;6.17;;;4.37;;
60032;SDS011;45905;50.570;10.428;2023-06-14T00:39:45;2.20;;;2.00;;
60032;SDS011;45905;50.570;10.428;2023-06-14T00:42:22;3.60;;;3.30;;
60032;SDS011;45905;50.570;10.428;2023-06-14T00:44:53;3.47;;;3.17;;
60032;SDS011;45905;50.570;10.428;2023-06-14T00:47:21;4.53;;;3.33;;
60032;SDS011;45905;50.570;10.428;2023-06-14T00:49:49;3.90;;;2.93;;
60032;SDS011;45905;50.570;10.428;2023-06-14T00:52:17;6.23;;;4.00;;
60032;SDS011;45905;50.570;10.428;2023-06-14T00:54:45;3.90;;;3.40;;
60032;SDS011;45905;50.570;10.428;2023-06-14T00:57:13;7.77;;;4.83;;
60032;SDS011;45905;50.570;10.428;2023-06-14T00:59:44;4.20;;;2.73;;
60032;SDS011;45905;50.570;10.428;2023-06-14T01:02:15;5.30;;;3.57;;
60032;SDS011;45905;50.570;10.428;2023-06-14T01:04:48;5.23;;;3.23;;
60032;SDS011;45905;50.570;10.428;2023-06-14T01:16:00;5.47;;;2.90;;
60032;SDS011;45905;50.570;10.428;2023-06-14T01:18:30;3.97;;;3.00;;
60032;SDS011;45905;50.570;10.428;2023-06-14T01:21:00;4.43;;;2.80;;
60032;SDS011;45905;50.570;10.428;2023-06-14T01:23:32;3.70;;;2.40;;
60032;SDS011;45905;50.570;10.428;2023-06-14T01:26:00;7.90;;;3.83;;
60032;SDS011;45905;50.570;10.428;2023-06-14T01:28:33;6.30;;;3.53;;
60032;SDS011;45905;50.570;10.428;2023-06-14T01:31:02;5.37;;;2.73;;
60032;SDS011;45905;50.570;10.428;2023-06-14T01:33:32;4.30;;;3.67;;
60032;SDS011;45905;50.570;10.428;2023-06-14T01:36:02;4.80;;;3.93;;
60032;SDS011;45905;50.570;10.428;2023-06-14T01:38:34;5.10;;;2.37;;
60032;SDS011;45905;50.570;10.428;2023-06-14T01:41:03;7.33;;;2.20;;
60032;SDS011;45905;50.570;10.428;2023-06-14T01:43:31;2.57;;;2.37;;
60032;SDS011;45905;50.570;10.428;2023-06-14T01:46:03;3.60;;;2.33;;
60032;SDS011;45905;50.570;10.428;2023-06-14T01:48:32;4.07;;;2.67;;
60032;SDS011;45905;50.570;10.428;2023-06-14T01:50:59;2.37;;;2.03;;
60032;SDS011;45905;50.570;10.428;2023-06-14T01:53:26;3.67;;;1.93;;
60032;SDS011;45905;50.570;10.428;2023-06-14T01:55:54;3.40;;;2.67;;
60032;SDS011;45905;50.570;10.428;2023-06-14T01:58:21;4.40;;;2.30;;
60032;SDS011;45905;50.570;10.428;2023-06-14T02:00:50;6.70;;;1.80;;
60032;SDS011;45905;50.570;10.428;2023-06-14T02:03:21;3.00;;;2.33;;
60032;SDS011;45905;50.570;10.428;2023-06-14T02:05:51;5.10;;;3.53;;
60032;SDS011;45905;50.570;10.428;2023-06-14T02:08:19;4.73;;;2.93;;
60032;SDS011;45905;50.570;10.428;2023-06-14T02:10:47;8.07;;;3.00;;
60032;SDS011;45905;50.570;10.428;2023-06-14T02:13:14;2.30;;;2.10;;
60032;SDS011;45905;50.570;10.428;2023-06-14T02:15:42;5.30;;;2.87;;
60032;SDS011;45905;50.570;10.428;2023-06-14T02:18:10;4.47;;;2.90;;
60032;SDS011;45905;50.570;10.428;2023-06-14T02:20:38;3.40;;;2.67;;
60032;SDS011;45905;50.570;10.428;2023-06-14T02:23:05;2.37;;;2.17;;
60032;SDS011;45905;50.570;10.428;2023-06-14T02:25:34;2.80;;;2.60;;
60032;SDS011;45905;50.570;10.428;2023-06-14T02:28:02;3.90;;;3.23;;
60032;SDS011;45905;50.570;10.428;2023-06-14T02:30:30;4.43;;;3.00;;
60032;SDS011;45905;50.570;10.428;2023-06-14T02:32:58;3.83;;;2.70;;
60032;SDS011;45905;50.570;10.428;2023-06-14T02:35:27;4.80;;;4.40;;
60032;SDS011;45905;50.570;10.428;2023-06-14T02:37:55;3.53;;;2.60;;
60032;SDS011;45905;50.570;10.428;2023-06-14T02:40:22;4.30;;;3.53;;
60032;SDS011;45905;50.570;10.428;2023-06-14T02:42:50;5.03;;;3.67;;
60032;SDS011;45905;50.570;10.428;2023-06-14T02:45:17;6.13;;;3.10;;
60032;SDS011;45905;50.570;10.428;2023-06-14T02:47:46;5.17;;;3.27;;
60032;SDS011;45905;50.570;10.428;2023-06-14T02:50:14;7.03;;;3.30;;
60032;SDS011;45905;50.570;10.428;2023-06-14T02:52:42;3.50;;;2.20;;
60032;SDS011;45905;50.570;10.428;2023-06-14T02:55:11;4.33;;;3.93;;
60032;SDS011;45905;50.570;10.428;2023-06-14T02:57:40;3.03;;;2.73;;
60032;SDS011;45905;50.570;10.428;2023-06-14T03:00:09;6.83;;;3.33;;
60032;SDS011;45905;50.570;10.428;2023-06-14T03:02:42;6.93;;;4.50;;
60032;SDS011;45905;50.570;10.428;2023-06-14T03:05:10;6.80;;;3.47;;
60032;SDS011;45905;50.570;10.428;2023-06-14T03:07:40;3.30;;;2.90;;
60032;SDS011;45905;50.570;10.428;2023-06-14T03:10:08;6.67;;;4.47;;
60032;SDS011;45905;50.570;10.428;2023-06-14T03:12:39;5.37;;;3.37;;
60032;SDS011;45905;50.570;10.428;2023-06-14T03:15:09;13.53;;;3.90;;
60032;SDS011;45905;50.570;10.428;2023-06-14T03:17:40;49.67;;;8.23;;
60032;SDS011;45905;50.570;10.428;2023-06-14T03:20:13;7.90;;;3.47;;
60032;SDS011;45905;50.570;10.428;2023-06-14T03:22:43;8.20;;;3.70;;
60032;SDS011;45905;50.570;10.428;2023-06-14T03:25:13;30.03;;;6.20;;
60032;SDS011;45905;50.570;10.428;2023-06-14T03:27:41;14.63;;;3.93;;
60032;SDS011;45905;50.570;10.428;2023-06-14T03:30:09;5.10;;;3.73;;
60032;SDS011;45905;50.570;10.428;2023-06-14T03:32:38;24.40;;;7.60;;
60032;SDS011;45905;50.570;10.428;2023-06-14T03:35:06;12.70;;;3.23;;
60032;SDS011;45905;50.570;10.428;2023-06-14T03:37:35;5.37;;;4.00;;
60032;SDS011;45905;50.570;10.428;2023-06-14T03:40:03;55.57;;;8.63;;
60032;SDS011;45905;50.570;10.428;2023-06-14T03:42:39;39.43;;;8.17;;
60032;SDS011;45905;50.570;10.428;2023-06-14T03:45:07;16.37;;;3.50;;
60032;SDS011;45905;50.570;10.428;2023-06-14T03:47:35;43.97;;;8.03;;
60032;SDS011;45905;50.570;10.428;2023-06-14T03:50:03;48.77;;;8.47;;
60032;SDS011;45905;50.570;10.428;2023-06-14T03:52:33;27.57;;;5.80;;
60032;SDS011;45905;50.570;10.428;2023-06-14T03:55:01;71.43;;;9.40;;
60032;SDS011;45905;50.570;10.428;2023-06-14T03:57:32;64.47;;;8.77;;
60032;SDS011;45905;50.570;10.428;2023-06-14T04:00:01;26.93;;;4.60;;
60032;SDS011;45905;50.570;10.428;2023-06-14T04:02:39;17.73;;;4.27;;
60032;SDS011;45905;50.570;10.428;2023-06-14T04:05:09;69.03;;;10.20;;
60032;SDS011;45905;50.570;10.428;2023-06-14T04:07:43;67.03;;;8.50;;
60032;SDS011;45905;50.570;10.428;2023-06-14T04:10:15;39.43;;;5.90;;
60032;SDS011;45905;50.570;10.428;2023-06-14T04:12:44;26.57;;;5.03;;
60032;SDS011;45905;50.570;10.428;2023-06-14T04:15:11;71.57;;;9.67;;
60032;SDS011;45905;50.570;10.428;2023-06-14T04:17:48;61.17;;;7.67;;
60032;SDS011;45905;50.570;10.428;2023-06-14T04:20:18;31.40;;;4.67;;
60032;SDS011;45905;50.570;10.428;2023-06-14T04:22:46;103.37;;;12.43;;
60032;SDS011;45905;50.570;10.428;2023-06-14T04:25:15;74.73;;;8.27;;
60032;SDS011;45905;50.570;10.428;2023-06-14T04:27:49;31.77;;;5.93;;
60032;SDS011;45905;50.570;10.428;2023-06-14T04:30:19;29.03;;;4.87;;
60032;SDS011;45905;50.570;10.428;2023-06-14T04:32:49;65.37;;;8.87;;
60032;SDS011;45905;50.570;10.428;2023-06-14T04:35:20;72.93;;;8.93;;
60032;SDS011;45905;50.570;10.428;2023-06-14T04:37:50;34.07;;;6.03;;
60032;SDS011;45905;50.570;10.428;2023-06-14T04:40:20;70.03;;;8.70;;
60032;SDS011;45905;50.570;10.428;2023-06-14T04:42:48;59.90;;;7.33;;
60032;SDS011;45905;50.570;10.428;2023-06-14T04:45:18;35.30;;;4.50;;
60032;SDS011;45905;50.570;10.428;2023-06-14T04:47:46;59.97;;;8.23;;
60032;SDS011;45905;50.570;10.428;2023-06-14T04:50:13;6.10;;;3.37;;
60032;SDS011;45905;50.570;10.428;2023-06-14T04:52:43;6.20;;;3.27;;
60032;SDS011;45905;50.570;10.428;2023-06-14T04:55:10;11.20;;;5.70;;
60032;SDS011;45905;50.570;10.428;2023-06-14T04:57:38;5.93;;;3.23;;
60032;SDS011;45905;50.570;10.428;2023-06-14T05:00:08;20.43;;;7.23;;
60032;SDS011;45905;50.570;10.428;2023-06-14T05:02:38;23.57;;;7.20;;
60032;SDS011;45905;50.570;10.428;2023-06-14T05:05:07;9.20;;;3.63;;
60032;SDS011;45905;50.570;10.428;2023-06-14T05:07:35;29.13;;;9.67;;
60032;SDS011;45905;50.570;10.428;2023-06-14T05:10:06;11.27;;;4.27;;
60032;SDS011;45905;50.570;10.428;2023-06-14T05:12:34;15.80;;;3.57;;
60032;SDS011;45905;50.570;10.428;2023-06-14T05:15:04;24.80;;;6.17;;
60032;SDS011;45905;50.570;10.428;2023-06-14T05:17:31;37.27;;;7.70;;
60032;SDS011;45905;50.570;10.428;2023-06-14T05:19:59;11.47;;;4.43;;
60032;SDS011;45905;50.570;10.428;2023-06-14T05:22:27;27.57;;;6.70;;
60032;SDS011;45905;50.570;10.428;2023-06-14T05:24:54;10.37;;;3.70;;
60032;SDS011;45905;50.570;10.428;2023-06-14T05:27:22;11.43;;;3.50;;
60032;SDS011;45905;50.570;10.428;2023-06-14T05:29:51;33.93;;;7.63;;
60032;SDS011;45905;50.570;10.428;2023-06-14T05:32:22;16.23;;;6.13;;
60032;SDS011;45905;50.570;10.428;2023-06-14T05:34:49;8.63;;;5.20;;
60032;SDS011;45905;50.570;10.428;2023-06-14T05:37:17;5.20;;;3.53;;
60032;SDS011;45905;50.570;10.428;2023-06-14T05:39:44;4.77;;;3.27;;
60032;SDS011;45905;50.570;10.428;2023-06-14T05:42:12;9.03;;;4.67;;
60032;SDS011;45905;50.570;10.428;2023-06-14T05:44:39;4.23;;;2.90;;
60032;SDS011;45905;50.570;10.428;2023-06-14T05:47:07;5.10;;;2.60;;
60032;SDS011;45905;50.570;10.428;2023-06-14T05:49:34;3.40;;;2.90;;
60032;SDS011;45905;50.570;10.428;2023-06-14T05:52:02;4.43;;;2.83;;
60032;SDS011;45905;50.570;10.428;2023-06-14T05:54:30;10.03;;;5.20;;
60032;SDS011;45905;50.570;10.428;2023-06-14T05:56:57;9.57;;;3.33;;
60032;SDS011;45905;50.570;10.428;2023-06-14T05:59:27;10.33;;;4.00;;
60032;SDS011;45905;50.570;10.428;2023-06-14T06:01:55;15.80;;;6.20;;
60032;SDS011;45905;50.570;10.428;2023-06-14T06:04:23;5.60;;;2.73;;
60032;SDS011;45905;50.570;10.428;2023-06-14T06:06:52;6.00;;;3.47;;
60032;SDS011;45905;50.570;10.428;2023-06-14T06:09:19;12.43;;;5.70;;
60032;SDS011;45905;50.570;10.428;2023-06-14T06:11:47;5.20;;;2.70;;
60032;SDS011;45905;50.570;10.428;2023-06-14T06:14:18;10.00;;;4.13;;
60032;SDS011;45905;50.570;10.428;2023-06-14T06:16:46;14.77;;;4.43;;
60032;SDS011;45905;50.570;10.428;2023-06-14T06:19:14;7.10;;;4.20;;
60032;SDS011;45905;50.570;10.428;2023-06-14T06:21:41;6.93;;;4.53;;
60032;SDS011;45905;50.570;10.428;2023-06-14T06:24:09;5.53;;;2.67;;
60032;SDS011;45905;50.570;10.428;2023-06-14T06:26:37;3.53;;;2.33;;
60032;SDS011;45905;50.570;10.428;2023-06-14T06:29:06;11.53;;;5.00;;
60032;SDS011;45905;50.570;10.428;2023-06-14T06:31:33;7.97;;;3.20;;
60032;SDS011;45905;50.570;10.428;2023-06-14T06:34:01;24.53;;;6.00;;
60032;SDS011;45905;50.570;10.428;2023-06-14T06:36:29;24.50;;;5.67;;
60032;SDS011;45905;50.570;10.428;2023-06-14T06:38:56;13.33;;;4.33;;
60032;SDS011;45905;50.570;10.428;2023-06-14T06:41:24;25.00;;;6.30;;
60032;SDS011;45905;50.570;10.428;2023-06-14T06:43:51;14.47;;;4.70;;
60032;SDS011;45905;50.570;10.428;2023-06-14T06:46:19;11.70;;;3.67;;
60032;SDS011;45905;50.570;10.428;2023-06-14T06:48:47;19.77;;;5.90;;
60032;SDS011;45905;50.570;10.428;2023-06-14T06:51:14;14.87;;;3.90;;
60032;SDS011;45905;50.570;10.428;2023-06-14T06:53:42;21.47;;;6.10;;
60032;SDS011;45905;50.570;10.428;2023-06-14T06:56:14;9.83;;;4.03;;
60032;SDS011;45905;50.570;10.428;2023-06-14T06:58:42;8.87;;;3.23;;
60032;SDS011;45905;50.570;10.428;2023-06-14T07:01:10;24.63;;;7.10;;
60032;SDS011;45905;50.570;10.428;2023-06-14T07:03:38;8.00;;;3.40;;
60032;SDS011;45905;50.570;10.428;2023-06-14T07:06:08;4.80;;;2.90;;
60032;SDS011;45905;50.570;10.428;2023-06-14T07:08:36;3.80;;;2.50;;
60032;SDS011;45905;50.570;10.428;2023-06-14T07:11:05;5.07;;;3.17;;
60032;SDS011;45905;50.570;10.428;2023-06-14T07:13:33;7.27;;;4.70;;
60032;SDS011;45905;50.570;10.428;2023-06-14T07:16:01;4.10;;;2.90;;
60032;SDS011;45905;50.570;10.428;2023-06-14T07:18:31;5.57;;;3.47;;
60032;SDS011;45905;50.570;10.428;2023-06-14T07:20:58;4.60;;;3.33;;
60032;SDS011;45905;50.570;10.428;2023-06-14T07:23:26;5.10;;;2.87;;
60032;SDS011;45905;50.570;10.428;2023-06-14T07:25:54;9.50;;;5.03;;
60032;SDS011;45905;50.570;10.428;2023-06-14T07:28:21;5.93;;;3.00;;
60032;SDS011;45905;50.570;10.428;2023-06-14T07:30:48;10.07;;;5.27;;
60032;SDS011;45905;50.570;10.428;2023-06-14T07:33:16;15.57;;;7.87;;
60032;SDS011;45905;50.570;10.428;2023-06-14T07:35:44;5.53;;;3.10;;
60032;SDS011;45905;50.570;10.428;2023-06-14T07:38:12;12.53;;;6.80;;
60032;SDS011;45905;50.570;10.428;2023-06-14T07:40:40;3.73;;;2.70;;
60032;SDS011;45905;50.570;10.428;2023-06-14T07:43:07;5.60;;;3.33;;
60032;SDS011;45905;50.570;10.428;2023-06-14T07:45:37;10.87;;;6.30;;
60032;SDS011;45905;50.570;10.428;2023-06-14T07:48:07;3.87;;;3.27;;
60032;SDS011;45905;50.570;10.428;2023-06-14T07:50:36;3.50;;;2.83;;
60032;SDS011;45905;50.570;10.428;2023-06-14T07:53:03;8.00;;;5.40;;
60032;SDS011;45905;50.570;10.428;2023-06-14T07:55:31;5.03;;;3.70;;
60032;SDS011;45905;50.570;10.428;2023-06-14T07:58:18;5.10;;;3.13;;
60032;SDS011;45905;50.570;10.428;2023-06-14T08:00:46;7.47;;;2.90;;
60032;SDS011;45905;50.570;10.428;2023-06-14T08:03:14;5.73;;;4.30;;
60032;SDS011;45905;50.570;10.428;2023-06-14T08:05:42;7.37;;;4.57;;
60032;SDS011;45905;50.570;10.428;2023-06-14T08:08:09;4.00;;;3.10;;
60032;SDS011;45905;50.570;10.428;2023-06-14T08:10:37;11.07;;;6.13;;
60032;SDS011;45905;50.570;10.428;2023-06-14T08:13:05;4.50;;;2.93;;
60032;SDS011;45905;50.570;10.428;2023-06-14T08:15:33;2.53;;;2.20;;
60032;SDS011;45905;50.570;10.428;2023-06-14T08:18:00;3.80;;;3.00;;
60032;SDS011;45905;50.570;10.428;2023-06-14T08:20:28;5.57;;;3.20;;
60032;SDS011;45905;50.570;10.428;2023-06-14T08:22:57;7.70;;;5.77;;
60032;SDS011;45905;50.570;10.428;2023-06-14T08:25:25;8.97;;;5.33;;
60032;SDS011;45905;50.570;10.428;2023-06-14T08:27:53;2.90;;;1.60;;
60032;SDS011;45905;50.570;10.428;2023-06-14T08:30:21;15.83;;;6.93;;
60032;SDS011;45905;50.570;10.428;2023-06-14T08:32:49;4.33;;;3.93;;
60032;SDS011;45905;50.570;10.428;2023-06-14T08:35:35;6.47;;;3.77;;
60032;SDS011;45905;50.570;10.428;2023-06-14T08:38:04;7.20;;;3.77;;
60032;SDS011;45905;50.570;10.428;2023-06-14T08:40:32;6.43;;;4.60;;
60032;SDS011;45905;50.570;10.428;2023-06-14T08:43:07;3.60;;;3.27;;
60032;SDS011;45905;50.570;10.428;2023-06-14T08:45:35;10.20;;;4.67;;
60032;SDS011;45905;50.570;10.428;2023-06-14T08:48:02;6.10;;;4.83;;
60032;SDS011;45905;50.570;10.428;2023-06-14T08:50:32;8.70;;;5.83;;
60032;SDS011;45905;50.570;10.428;2023-06-14T08:53:06;3.93;;;2.47;;
60032;SDS011;45905;50.570;10.428;2023-06-14T08:55:39;2.80;;;2.33;;
60032;SDS011;45905;50.570;10.428;2023-06-14T08:58:09;6.60;;;5.47;;
60032;SDS011;45905;50.570;10.428;2023-06-14T09:00:41;7.63;;;6.23;;
60032;SDS011;45905;50.570;10.428;2023-06-14T09:03:11;3.10;;;2.50;;
60032;SDS011;45905;50.570;10.428;2023-06-14T09:05:40;5.83;;;4.87;;
60032;SDS011;45905;50.570;10.428;2023-06-14T09:08:08;3.03;;;2.67;;
60032;SDS011;45905;50.570;10.428;2023-06-14T09:10:36;10.13;;;3.77;;
60032;SDS011;45905;50.570;10.428;2023-06-14T09:13:05;6.97;;;4.73;;
60032;SDS011;45905;50.570;10.428;2023-06-14T09:15:33;4.50;;;3.27;;
60032;SDS011;45905;50.570;10.428;2023-06-14T09:18:01;5.97;;;3.80;;
60032;SDS011;45905;50.570;10.428;2023-06-14T09:20:30;4.47;;;3.93;;
60032;SDS011;45905;50.570;10.428;2023-06-14T09:22:58;4.53;;;3.17;;
60032;SDS011;45905;50.570;10.428;2023-06-14T09:25:27;4.17;;;2.40;;
60032;SDS011;45905;50.570;10.428;2023-06-14T09:27:57;4.87;;;3.73;;
60032;SDS011;45905;50.570;10.428;2023-06-14T09:30:25;3.37;;;2.17;;
60032;SDS011;45905;50.570;10.428;2023-06-14T09:32:52;8.37;;;6.10;;
60032;SDS011;45905;50.570;10.428;2023-06-14T09:35:20;6.80;;;5.20;;
60032;SDS011;45905;50.570;10.428;2023-06-14T09:37:48;4.30;;;3.70;;
60032;SDS011;45905;50.570;10.428;2023-06-14T09:40:25;5.07;;;4.53;;
60032;SDS011;45905;50.570;10.428;2023-06-14T09:42:53;7.67;;;5.33;;
60032;SDS011;45905;50.570;10.428;2023-06-14T09:45:21;6.27;;;3.33;;
60032;SDS011;45905;50.570;10.428;2023-06-14T09:47:50;5.03;;;3.00;;
60032;SDS011;45905;50.570;10.428;2023-06-14T09:50:32;3.27;;;2.30;;
60032;SDS011;45905;50.570;10.428;2023-06-14T09:53:07;7.17;;;5.90;;
60032;SDS011;45905;50.570;10.428;2023-06-14T09:55:40;3.40;;;2.77;;
60032;SDS011;45905;50.570;10.428;2023-06-14T09:58:08;5.63;;;3.70;;
60032;SDS011;45905;50.570;10.428;2023-06-14T10:00:39;6.37;;;4.70;;
60032;SDS011;45905;50.570;10.428;2023-06-14T10:03:12;3.53;;;2.60;;
60032;SDS011;45905;50.570;10.428;2023-06-14T10:05:43;5.17;;;3.80;;
60032;SDS011;45905;50.570;10.428;2023-06-14T10:08:14;2.93;;;2.70;;
60032;SDS011;45905;50.570;10.428;2023-06-14T10:10:45;7.10;;;4.83;;
60032;SDS011;45905;50.570;10.428;2023-06-14T10:13:14;10.17;;;4.60;;
60032;SDS011;45905;50.570;10.428;2023-06-14T10:15:46;5.97;;;3.43;;
60032;SDS011;45905;50.570;10.428;2023-06-14T10:22:01;7.00;;;6.40;;
60032;SDS011;45905;50.570;10.428;2023-06-14T10:24:41;3.70;;;3.07;;
60032;SDS011;45905;50.570;10.428;2023-06-14T10:27:14;7.57;;;5.27;;
60032;SDS011;45905;50.570;10.428;2023-06-14T10:32:20;5.83;;;4.13;;
60032;SDS011;45905;50.570;10.428;2023-06-14T10:34:58;5.27;;;3.50;;
60032;SDS011;45905;50.570;10.428;2023-06-14T10:37:30;3.47;;;3.00;;
60032;SDS011;45905;50.570;10.428;2023-06-14T10:39:58;7.60;;;5.23;;
60032;SDS011;45905;50.570;10.428;2023-06-14T10:42:32;4.90;;;3.10;;
60032;SDS011;45905;50.570;10.428;2023-06-14T10:45:00;5.87;;;4.00;;
60032;SDS011;45905;50.570;10.428;2023-06-14T10:47:31;9.37;;;5.87;;
60032;SDS011;45905;50.570;10.428;2023-06-14T10:52:41;5.63;;;3.40;;
60032;SDS011;45905;50.570;10.428;2023-06-14T10:55:18;3.77;;;2.73;;
60032;SDS011;45905;50.570;10.428;2023-06-14T10:57:53;4.20;;;3.10;;
60032;SDS011;45905;50.570;10.428;2023-06-14T11:00:26;6.20;;;4.13;;
60032;SDS011;45905;50.570;10.428;2023-06-14T11:05:50;9.50;;;5.33;;
60032;SDS011;45905;50.570;10.428;2023-06-14T11:11:17;12.00;;;6.00;;
60032;SDS011;45905;50.570;10.428;2023-06-14T11:13:50;9.30;;;4.20;;
60032;SDS011;45905;50.570;10.428;2023-06-14T11:16:21;16.93;;;8.27;;
60032;SDS011;45905;50.570;10.428;2023-06-14T11:18:54;16.73;;;8.03;;
60032;SDS011;45905;50.570;10.428;2023-06-14T11:21:23;10.77;;;5.67;;
60032;SDS011;45905;50.570;10.428;2023-06-14T11:23:52;9.57;;;5.03;;
60032;SDS011;45905;50.570;10.428;2023-06-14T11:26:28;10.33;;;4.60;;
60032;SDS011;45905;50.570;10.428;2023-06-14T11:28:58;9.43;;;5.23;;
60032;SDS011;45905;50.570;10.428;2023-06-14T11:31:27;9.33;;;4.67;;
60032;SDS011;45905;50.570;10.428;2023-06-14T11:33:59;3.20;;;1.70;;
60032;SDS011;45905;50.570;10.428;2023-06-14T11:36:31;4.17;;;1.93;;
60032;SDS011;45905;50.570;10.428;2023-06-14T11:39:04;3.27;;;2.30;;
60032;SDS011;45905;50.570;10.428;2023-06-14T11:41:36;2.10;;;1.90;;
60032;SDS011;45905;50.570;10.428;2023-06-14T11:44:04;2.57;;;2.37;;
60032;SDS011;45905;50.570;10.428;2023-06-14T11:46:33;9.93;;;4.20;;
60032;SDS011;45905;50.570;10.428;2023-06-14T11:49:02;21.70;;;6.50;;
60032;SDS011;45905;50.570;10.428;2023-06-14T11:51:34;14.13;;;5.73;;
60032;SDS011;45905;50.570;10.428;2023-06-14T11:54:02;6.20;;;2.53;;
60032;SDS011;45905;50.570;10.428;2023-06-14T11:56:31;2.00;;;1.53;;
60032;SDS011;45905;50.570;10.428;2023-06-14T11:58:59;2.23;;;1.80;;
60032;SDS011;45905;50.570;10.428;2023-06-14T12:01:27;3.10;;;2.00;;
60032;SDS011;45905;50.570;10.428;2023-06-14T12:03:58;4.00;;;1.80;;
60032;SDS011;45905;50.570;10.428;2023-06-14T12:06:28;2.40;;;2.00;;
60032;SDS011;45905;50.570;10.428;2023-06-14T12:09:02;4.87;;;1.30;;
60032;SDS011;45905;50.570;10.428;2023-06-14T12:11:33;3.10;;;1.60;;
60032;SDS011;45905;50.570;10.428;2023-06-14T12:14:03;5.37;;;1.90;;
60032;SDS011;45905;50.570;10.428;2023-06-14T12:16:36;2.97;;;2.77;;
60032;SDS011;45905;50.570;10.428;2023-06-14T12:19:16;4.07;;;2.30;;
60032;SDS011;45905;50.570;10.428;2023-06-14T12:21:47;4.03;;;2.60;;
60032;SDS011;45905;50.570;10.428;2023-06-14T12:24:16;2.37;;;1.77;;
60032;SDS011;45905;50.570;10.428;2023-06-14T12:26:43;2.67;;;2.33;;
60032;SDS011;45905;50.570;10.428;2023-06-14T12:29:12;2.63;;;2.40;;
60032;SDS011;45905;50.570;10.428;2023-06-14T12:31:39;3.90;;;3.17;;
60032;SDS011;45905;50.570;10.428;2023-06-14T12:34:07;3.40;;;2.93;;
60032;SDS011;45905;50.570;10.428;2023-06-14T12:36:36;3.47;;;2.43;;
60032;SDS011;45905;50.570;10.428;2023-06-14T12:39:08;5.00;;;2.77;;
60032;SDS011;45905;50.570;10.428;2023-06-14T12:41:36;2.03;;;1.93;;
60032;SDS011;45905;50.570;10.428;2023-06-14T12:44:04;2.13;;;1.93;;
60032;SDS011;45905;50.570;10.428;2023-06-14T12:46:31;5.23;;;3.40;;
60032;SDS011;45905;50.570;10.428;2023-06-14T12:48:59;3.50;;;3.20;;
60032;SDS011;45905;50.570;10.428;2023-06-14T12:51:27;4.10;;;3.67;;
60032;SDS011;45905;50.570;10.428;2023-06-14T12:53:54;8.40;;;3.93;;
60032;SDS011;45905;50.570;10.428;2023-06-14T12:56:22;2.73;;;2.53;;
60032;SDS011;45905;50.570;10.428;2023-06-14T12:58:50;4.97;;;4.40;;
60032;SDS011;45905;50.570;10.428;2023-06-14T13:01:18;2.77;;;2.50;;
60032;SDS011;45905;50.570;10.428;2023-06-14T13:03:46;3.60;;;3.30;;
60032;SDS011;45905;50.570;10.428;2023-06-14T13:06:14;4.90;;;4.50;;
60032;SDS011;45905;50.570;10.428;2023-06-14T13:08:42;3.87;;;3.57;;
60032;SDS011;45905;50.570;10.428;2023-06-14T13:11:09;4.63;;;4.23;;
60032;SDS011;45905;50.570;10.428;2023-06-14T13:13:37;5.90;;;3.17;;
60032;SDS011;45905;50.570;10.428;2023-06-14T13:16:05;3.43;;;2.80;;
60032;SDS011;45905;50.570;10.428;2023-06-14T13:18:33;7.60;;;4.57;;
60032;SDS011;45905;50.570;10.428;2023-06-14T13:21:01;4.10;;;3.70;;
60032;SDS011;45905;50.570;10.428;2023-06-14T13:23:28;4.90;;;4.43;;
60032;SDS011;45905;50.570;10.428;2023-06-14T13:25:56;5.63;;;4.70;;
60032;SDS011;45905;50.570;10.428;2023-06-14T13:28:23;4.20;;;3.00;;
60032;SDS011;45905;50.570;10.428;2023-06-14T13:30:50;6.33;;;3.40;;
60032;SDS011;45905;50.570;10.428;2023-06-14T13:33:18;3.83;;;3.20;;
60032;SDS011;45905;50.570;10.428;2023-06-14T13:35:46;4.50;;;3.47;;
60032;SDS011;45905;50.570;10.428;2023-06-14T13:38:15;11.80;;;7.03;;
60032;SDS011;45905;50.570;10.428;2023-06-14T13:40:42;3.30;;;2.20;;
60032;SDS011;45905;50.570;10.428;2023-06-14T13:43:10;4.67;;;3.70;;
60032;SDS011;45905;50.570;10.428;2023-06-14T13:45:37;5.50;;;2.70;;
60032;SDS011;45905;50.570;10.428;2023-06-14T13:48:05;3.70;;;2.73;;
60032;SDS011;45905;50.570;10.428;2023-06-14T13:50:32;1.50;;;1.20;;
60032;SDS011;45905;50.570;10.428;2023-06-14T13:52:59;11.80;;;2.10;;
60032;SDS011;45905;50.570;10.428;2023-06-14T13:55:27;1.97;;;1.60;;
60032;SDS011;45905;50.570;10.428;2023-06-14T13:57:54;2.97;;;1.77;;
60032;SDS011;45905;50.570;10.428;2023-06-14T14:00:23;4.07;;;2.73;;
60032;SDS011;45905;50.570;10.428;2023-06-14T14:02:50;2.60;;;1.80;;
60032;SDS011;45905;50.570;10.428;2023-06-14T14:05:18;3.67;;;1.77;;
60032;SDS011;45905;50.570;10.428;2023-06-14T14:07:47;2.20;;;1.20;;
60032;SDS011;45905;50.570;10.428;2023-06-14T14:10:14;3.87;;;1.70;;
60032;SDS011;45905;50.570;10.428;2023-06-14T14:12:42;5.23;;;1.70;;
60032;SDS011;45905;50.570;10.428;2023-06-14T14:15:09;2.63;;;1.47;;
60032;SDS011;45905;50.570;10.428;2023-06-14T14:17:40;2.47;;;1.60;;
60032;SDS011;45905;50.570;10.428;2023-06-14T14:20:08;3.33;;;1.40;;
60032;SDS011;45905;50.570;10.428;2023-06-14T14:22:38;2.50;;;1.90;;
60032;SDS011;45905;50.570;10.428;2023-06-14T14:25:05;4.03;;;2.13;;
60032;SDS011;45905;50.570;10.428;2023-06-14T14:27:32;2.10;;;1.50;;
60032;SDS011;45905;50.570;10.428;2023-06-14T14:29:59;4.30;;;1.70;;
60032;SDS011;45905;50.570;10.428;2023-06-14T14:32:27;3.83;;;2.00;;
60032;SDS011;45905;50.570;10.428;2023-06-14T14:34:54;2.30;;;1.80;;
60032;SDS011;45905;50.570;10.428;2023-06-14T14:37:21;3.67;;;1.87;;
60032;SDS011;45905;50.570;10.428;2023-06-14T14:39:49;1.83;;;1.70;;
60032;SDS011;45905;50.570;10.428;2023-06-14T14:42:16;1.67;;;1.30;;
60032;SDS011;45905;50.570;10.428;2023-06-14T14:44:44;2.67;;;1.57;;
60032;SDS011;45905;50.570;10.428;2023-06-14T14:47:12;7.03;;;2.33;;
60032;SDS011;45905;50.570;10.428;2023-06-14T14:49:39;3.90;;;1.70;;
60032;SDS011;45905;50.570;10.428;2023-06-14T14:52:06;2.03;;;1.50;;
60032;SDS011;45905;50.570;10.428;2023-06-14T14:54:40;2.40;;;2.07;;
60032;SDS011;45905;50.570;10.428;2023-06-14T14:57:07;2.17;;;1.77;;
60032;SDS011;45905;50.570;10.428;2023-06-14T14:59:34;3.20;;;2.23;;
60032;SDS011;45905;50.570;10.428;2023-06-14T15:02:02;2.40;;;1.90;;
60032;SDS011;45905;50.570;10.428;2023-06-14T15:04:29;2.27;;;1.70;;
60032;SDS011;45905;50.570;10.428;2023-06-14T15:06:57;4.37;;;1.70;;